createdAt,value
2022-10-13T00:15:27.620Z,10.96
2022-10-13T00:35:27.623Z,11.06
2022-10-13T00:55:27.617Z,11.07
2022-10-13T01:15:27.628Z,11.11
2022-10-13T01:55:27.606Z,11.22
2022-10-13T02:35:27.598Z,11.38
2022-10-13T02:55:27.588Z,11.46
2022-10-13T03:15:27.593Z,11.43
2022-10-13T03:35:27.584Z,11.53
2022-10-13T03:55:27.582Z,11.6
2022-10-13T04:15:27.584Z,11.74
2022-10-13T04:35:27.574Z,11.83
2022-10-13T04:55:27.580Z,11.96
2022-10-13T05:15:27.572Z,12.05
2022-10-13T05:35:27.577Z,11.86
2022-10-13T07:15:27.542Z,12.55
2022-10-13T07:35:30.595Z,12.71
2022-10-13T07:55:27.536Z,13.17
2022-10-13T08:35:30.132Z,13.71
2022-10-13T08:55:27.531Z,14.09
2022-10-13T09:15:27.517Z,14.3
2022-10-13T10:55:27.486Z,16.81
2022-10-13T14:35:27.400Z,14.9
2022-10-13T14:55:27.386Z,14.71
2022-10-13T15:15:27.385Z,14.51
2022-10-13T15:35:27.372Z,14.35
2022-10-13T15:55:27.376Z,14.36
2022-10-13T16:15:27.375Z,14.4
2022-10-13T16:35:27.366Z,14.31
2022-10-13T16:55:27.353Z,14.3
2022-10-13T17:15:27.389Z,14.3
2022-10-13T17:35:27.348Z,14.3
2022-10-13T17:55:27.346Z,14.04
2022-10-13T18:15:27.333Z,13.54
2022-10-13T18:35:31.394Z,13.46
2022-10-13T18:55:27.324Z,13.45
2022-10-13T19:15:27.322Z,13.46
2022-10-13T19:35:27.316Z,13.48
2022-10-13T19:55:27.309Z,13.54
2022-10-13T20:15:27.297Z,13.61
2022-10-13T20:35:27.309Z,13.51
2022-10-13T20:55:27.294Z,13.47
2022-10-13T21:15:27.282Z,13.46
2022-10-13T21:35:27.296Z,13.41
2022-10-13T22:35:27.278Z,13.04
2022-10-13T22:55:27.276Z,13.03
2022-10-13T23:15:27.254Z,13.04
2022-10-13T23:35:27.249Z,13
2022-10-13T23:55:27.269Z,12.99
